sensor_id;sensor_type;location;lat;lon;timestamp;pressure;altitude;pressure_sealevel;temperature;humidity
8320;BME280;4197;42.130;24.746;2023-08-17T00:00:05;99432.72;;;22.98;64.26
8320;BME280;4197;42.130;24.746;2023-08-17T00:02:37;99434.34;;;22.95;64.10
8320;BME280;4197;42.130;24.746;2023-08-17T00:05:05;99429.69;;;22.92;64.35
8320;BME280;4197;42.130;24.746;2023-08-17T00:07:35;99434.44;;;22.91;64.75
8320;BME280;4197;42.130;24.746;2023-08-17T00:10:04;99439.19;;;22.91;64.65
8320;BME280;4197;42.130;24.746;2023-08-17T00:12:32;99436.41;;;22.91;64.78
8320;BME280;4197;42.130;24.746;2023-08-17T00:15:01;99432.13;;;22.90;65.00
8320;BME280;4197;42.130;24.746;2023-08-17T00:17:29;99427.47;;;22.87;65.18
8320;BME280;4197;42.130;24.746;2023-08-17T00:19:58;99426.25;;;22.88;65.91
8320;BME280;4197;42.130;24.746;2023-08-17T00:22:26;99423.47;;;22.88;66.89
8320;BME280;4197;42.130;24.746;2023-08-17T00:24:55;99431.44;;;22.86;68.03
8320;BME280;4197;42.130;24.746;2023-08-17T00:27:24;99430.75;;;22.82;68.55
8320;BME280;4197;42.130;24.746;2023-08-17T00:29:52;99431.63;;;22.79;68.48
8320;BME280;4197;42.130;24.746;2023-08-17T00:32:20;99430.94;;;22.75;69.03
8320;BME280;4197;42.130;24.746;2023-08-17T00:34:48;99429.84;;;22.72;69.34
8320;BME280;4197;42.130;24.746;2023-08-17T00:37:17;99427.19;;;22.68;69.08
8320;BME280;4197;42.130;24.746;2023-08-17T00:39:45;99429.69;;;22.63;69.46
8320;BME280;4197;42.130;24.746;2023-08-17T00:42:14;99429.81;;;22.59;70.11
8320;BME280;4197;42.130;24.746;2023-08-17T00:44:43;99423.50;;;22.59;70.94
8320;BME280;4197;42.130;24.746;2023-08-17T00:47:11;99422.03;;;22.54;71.72
8320;BME280;4197;42.130;24.746;2023-08-17T00:49:39;99431.34;;;22.60;71.91
8320;BME280;4197;42.130;24.746;2023-08-17T00:52:08;99431.78;;;22.59;71.96
8320;BME280;4197;42.130;24.746;2023-08-17T00:54:37;99437.63;;;22.61;72.03
8320;BME280;4197;42.130;24.746;2023-08-17T00:57:05;99436.28;;;22.53;72.48
8320;BME280;4197;42.130;24.746;2023-08-17T00:59:36;99436.22;;;22.56;71.25
8320;BME280;4197;42.130;24.746;2023-08-17T01:02:06;99441.72;;;22.56;70.41
8320;BME280;4197;42.130;24.746;2023-08-17T01:04:35;99435.41;;;22.56;70.57
8320;BME280;4197;42.130;24.746;2023-08-17T01:07:03;99438.00;;;22.63;70.52
8320;BME280;4197;42.130;24.746;2023-08-17T01:09:32;99436.72;;;22.51;70.96
8320;BME280;4197;42.130;24.746;2023-08-17T01:12:07;99443.31;;;22.41;71.22
8320;BME280;4197;42.130;24.746;2023-08-17T01:14:52;99439.88;;;22.37;71.55
8320;BME280;4197;42.130;24.746;2023-08-17T01:17:26;99433.75;;;22.29;72.01
8320;BME280;4197;42.130;24.746;2023-08-17T01:19:58;99431.16;;;22.22;72.03
8320;BME280;4197;42.130;24.746;2023-08-17T01:22:30;99423.03;;;22.15;72.75
8320;BME280;4197;42.130;24.746;2023-08-17T01:25:01;99426.22;;;22.13;73.28
8320;BME280;4197;42.130;24.746;2023-08-17T01:27:40;99431.84;;;22.10;73.60
8320;BME280;4197;42.130;24.746;2023-08-17T01:30:11;99429.19;;;22.06;74.24
8320;BME280;4197;42.130;24.746;2023-08-17T01:32:45;99435.53;;;22.03;74.85
8320;BME280;4197;42.130;24.746;2023-08-17T01:35:21;99431.34;;;21.98;75.27
8320;BME280;4197;42.130;24.746;2023-08-17T01:37:53;99431.22;;;22.02;75.82
8320;BME280;4197;42.130;24.746;2023-08-17T01:40:24;99428.38;;;21.89;76.04
8320;BME280;4197;42.130;24.746;2023-08-17T01:42:55;99429.34;;;21.82;76.28
8320;BME280;4197;42.130;24.746;2023-08-17T01:45:25;99439.69;;;21.78;76.95
8320;BME280;4197;42.130;24.746;2023-08-17T01:47:53;99425.53;;;21.76;77.94
8320;BME280;4197;42.130;24.746;2023-08-17T01:50:22;99430.03;;;21.87;78.64
8320;BME280;4197;42.130;24.746;2023-08-17T01:52:51;99418.13;;;21.90;78.87
8320;BME280;4197;42.130;24.746;2023-08-17T01:55:22;99426.75;;;21.92;79.58
8320;BME280;4197;42.130;24.746;2023-08-17T01:57:51;99429.25;;;21.86;80.16
8320;BME280;4197;42.130;24.746;2023-08-17T02:00:19;99429.16;;;21.73;81.20
8320;BME280;4197;42.130;24.746;2023-08-17T02:02:47;99428.03;;;21.71;82.32
8320;BME280;4197;42.130;24.746;2023-08-17T02:05:15;99424.25;;;21.65;82.80
8320;BME280;4197;42.130;24.746;2023-08-17T02:07:44;99430.69;;;21.58;84.32
8320;BME280;4197;42.130;24.746;2023-08-17T02:10:12;99422.06;;;21.56;86.42
8320;BME280;4197;42.130;24.746;2023-08-17T02:12:41;99427.84;;;21.45;87.91
8320;BME280;4197;42.130;24.746;2023-08-17T02:15:11;99423.72;;;21.33;89.89
8320;BME280;4197;42.130;24.746;2023-08-17T02:17:40;99418.00;;;21.24;92.25
8320;BME280;4197;42.130;24.746;2023-08-17T02:20:09;99419.88;;;21.11;93.79
8320;BME280;4197;42.130;24.746;2023-08-17T02:22:38;99419.66;;;21.02;95.12
8320;BME280;4197;42.130;24.746;2023-08-17T02:25:07;99413.59;;;20.90;96.23
8320;BME280;4197;42.130;24.746;2023-08-17T02:27:35;99417.13;;;20.91;97.71
8320;BME280;4197;42.130;24.746;2023-08-17T02:30:06;99417.13;;;20.91;98.28
8320;BME280;4197;42.130;24.746;2023-08-17T02:32:35;99409.22;;;20.93;98.82
8320;BME280;4197;42.130;24.746;2023-08-17T02:35:03;99426.41;;;21.01;99.10
8320;BME280;4197;42.130;24.746;2023-08-17T02:37:31;99414.16;;;21.02;98.63
8320;BME280;4197;42.130;24.746;2023-08-17T02:40:00;99411.31;;;21.05;97.91
8320;BME280;4197;42.130;24.746;2023-08-17T02:42:28;99410.97;;;21.03;98.27
8320;BME280;4197;42.130;24.746;2023-08-17T02:44:56;99419.22;;;21.03;98.39
8320;BME280;4197;42.130;24.746;2023-08-17T02:47:26;99416.91;;;21.02;98.50
8320;BME280;4197;42.130;24.746;2023-08-17T02:49:55;99416.06;;;21.05;98.19
8320;BME280;4197;42.130;24.746;2023-08-17T02:52:23;99414.72;;;20.93;98.80
8320;BME280;4197;42.130;24.746;2023-08-17T02:54:51;99417.25;;;20.84;98.96
8320;BME280;4197;42.130;24.746;2023-08-17T02:57:20;99423.22;;;20.82;99.17
8320;BME280;4197;42.130;24.746;2023-08-17T02:59:48;99418.97;;;20.78;97.68
8320;BME280;4197;42.130;24.746;2023-08-17T03:02:16;99423.00;;;20.73;98.58
8320;BME280;4197;42.130;24.746;2023-08-17T03:04:47;99421.06;;;20.70;97.35
8320;BME280;4197;42.130;24.746;2023-08-17T03:07:15;99416.41;;;20.67;97.22
8320;BME280;4197;42.130;24.746;2023-08-17T03:09:43;99417.41;;;20.77;95.05
8320;BME280;4197;42.130;24.746;2023-08-17T03:12:11;99418.91;;;20.81;92.68
8320;BME280;4197;42.130;24.746;2023-08-17T03:14:40;99413.25;;;20.88;88.38
8320;BME280;4197;42.130;24.746;2023-08-17T03:17:08;99417.34;;;20.80;87.36
8320;BME280;4197;42.130;24.746;2023-08-17T03:19:36;99414.00;;;20.89;84.01
8320;BME280;4197;42.130;24.746;2023-08-17T03:22:06;99415.63;;;20.86;83.50
8320;BME280;4197;42.130;24.746;2023-08-17T03:24:34;99418.75;;;20.88;81.98
8320;BME280;4197;42.130;24.746;2023-08-17T03:27:02;99414.88;;;20.86;81.82
8320;BME280;4197;42.130;24.746;2023-08-17T03:29:30;99420.53;;;20.79;81.80
8320;BME280;4197;42.130;24.746;2023-08-17T03:31:59;99421.78;;;20.74;83.43
8320;BME280;4197;42.130;24.746;2023-08-17T03:34:27;99423.13;;;20.66;83.27
8320;BME280;4197;42.130;24.746;2023-08-17T03:36:55;99432.66;;;20.61;83.75
8320;BME280;4197;42.130;24.746;2023-08-17T03:39:25;99430.19;;;20.67;84.97
8320;BME280;4197;42.130;24.746;2023-08-17T03:41:53;99435.47;;;20.58;84.63
8320;BME280;4197;42.130;24.746;2023-08-17T03:44:22;99433.19;;;20.53;84.20
8320;BME280;4197;42.130;24.746;2023-08-17T03:46:50;99440.63;;;20.56;83.88
8320;BME280;4197;42.130;24.746;2023-08-17T03:49:18;99437.03;;;20.59;83.74
8320;BME280;4197;42.130;24.746;2023-08-17T03:51:46;99437.69;;;20.66;83.07
8320;BME280;4197;42.130;24.746;2023-08-17T03:54:14;99448.63;;;20.70;82.89
8320;BME280;4197;42.130;24.746;2023-08-17T03:56:44;99444.53;;;20.78;82.86
8320;BME280;4197;42.130;24.746;2023-08-17T03:59:14;99439.19;;;20.91;81.79
8320;BME280;4197;42.130;24.746;2023-08-17T04:01:42;99441.22;;;21.07;81.65
8320;BME280;4197;42.130;24.746;2023-08-17T04:04:12;99434.69;;;21.17;80.67
8320;BME280;4197;42.130;24.746;2023-08-17T04:06:40;99436.47;;;21.27;80.58
8320;BME280;4197;42.130;24.746;2023-08-17T04:09:08;99438.25;;;21.37;81.12
8320;BME280;4197;42.130;24.746;2023-08-17T04:11:37;99440.09;;;21.60;78.85
8320;BME280;4197;42.130;24.746;2023-08-17T04:14:06;99443.63;;;21.61;78.33
8320;BME280;4197;42.130;24.746;2023-08-17T04:16:35;99446.81;;;21.59;77.46
8320;BME280;4197;42.130;24.746;2023-08-17T04:19:03;99450.38;;;21.76;72.62
8320;BME280;4197;42.130;24.746;2023-08-17T04:21:32;99439.50;;;22.02;70.05
8320;BME280;4197;42.130;24.746;2023-08-17T04:24:01;99438.28;;;22.03;70.50
8320;BME280;4197;42.130;24.746;2023-08-17T04:26:29;99439.69;;;22.11;70.74
8320;BME280;4197;42.130;24.746;2023-08-17T04:28:57;99442.19;;;22.05;71.06
8320;BME280;4197;42.130;24.746;2023-08-17T04:31:27;99445.22;;;22.27;69.88
8320;BME280;4197;42.130;24.746;2023-08-17T04:33:55;99447.53;;;22.45;68.71
8320;BME280;4197;42.130;24.746;2023-08-17T04:36:23;99445.03;;;22.51;67.81
8320;BME280;4197;42.130;24.746;2023-08-17T04:38:51;99443.94;;;22.61;67.42
8320;BME280;4197;42.130;24.746;2023-08-17T04:41:19;99448.00;;;22.73;67.76
8320;BME280;4197;42.130;24.746;2023-08-17T04:43:48;99443.72;;;22.85;67.98
8320;BME280;4197;42.130;24.746;2023-08-17T04:46:16;99449.13;;;22.88;68.81
8320;BME280;4197;42.130;24.746;2023-08-17T04:48:46;99451.03;;;22.91;69.74
8320;BME280;4197;42.130;24.746;2023-08-17T04:51:14;99454.41;;;22.83;71.07
8320;BME280;4197;42.130;24.746;2023-08-17T04:53:42;99451.03;;;22.91;71.09
8320;BME280;4197;42.130;24.746;2023-08-17T04:56:11;99448.53;;;22.97;71.67
8320;BME280;4197;42.130;24.746;2023-08-17T04:58:39;99451.97;;;23.01;72.08
8320;BME280;4197;42.130;24.746;2023-08-17T05:01:07;99447.31;;;22.98;72.73
8320;BME280;4197;42.130;24.746;2023-08-17T05:03:37;99447.69;;;23.13;71.76
8320;BME280;4197;42.130;24.746;2023-08-17T05:06:07;99462.28;;;23.13;72.08
8320;BME280;4197;42.130;24.746;2023-08-17T05:08:35;99454.88;;;23.10;72.10
8320;BME280;4197;42.130;24.746;2023-08-17T05:11:03;99455.44;;;23.18;70.87
8320;BME280;4197;42.130;24.746;2023-08-17T05:13:31;99457.78;;;23.20;70.92
8320;BME280;4197;42.130;24.746;2023-08-17T05:16:00;99457.47;;;23.43;69.75
8320;BME280;4197;42.130;24.746;2023-08-17T05:18:28;99454.03;;;23.52;69.43
8320;BME280;4197;42.130;24.746;2023-08-17T05:23:41;99456.38;;;23.53;69.87
8320;BME280;4197;42.130;24.746;2023-08-17T05:26:09;99455.94;;;23.68;69.33
8320;BME280;4197;42.130;24.746;2023-08-17T05:28:37;99451.63;;;23.92;68.15
8320;BME280;4197;42.130;24.746;2023-08-17T05:31:06;99462.16;;;23.97;68.09
8320;BME280;4197;42.130;24.746;2023-08-17T05:33:34;99459.16;;;23.92;68.51
8320;BME280;4197;42.130;24.746;2023-08-17T05:36:04;99453.50;;;23.95;68.40
8320;BME280;4197;42.130;24.746;2023-08-17T05:38:40;99442.78;;;23.97;68.91
8320;BME280;4197;42.130;24.746;2023-08-17T05:41:13;99448.66;;;24.34;67.16
8320;BME280;4197;42.130;24.746;2023-08-17T05:43:43;99455.19;;;24.40;66.02
8320;BME280;4197;42.130;24.746;2023-08-17T05:46:12;99458.09;;;24.37;66.71
8320;BME280;4197;42.130;24.746;2023-08-17T05:48:40;99455.13;;;24.66;64.81
8320;BME280;4197;42.130;24.746;2023-08-17T05:51:08;99455.81;;;24.57;65.43
8320;BME280;4197;42.130;24.746;2023-08-17T05:53:37;99450.19;;;24.35;66.68
8320;BME280;4197;42.130;24.746;2023-08-17T05:56:05;99447.97;;;24.43;66.45
8320;BME280;4197;42.130;24.746;2023-08-17T05:58:35;99452.66;;;24.46;66.20
8320;BME280;4197;42.130;24.746;2023-08-17T06:01:06;99449.97;;;24.77;64.01
8320;BME280;4197;42.130;24.746;2023-08-17T06:03:36;99450.53;;;24.94;62.36
8320;BME280;4197;42.130;24.746;2023-08-17T06:06:04;99447.97;;;25.00;61.69
8320;BME280;4197;42.130;24.746;2023-08-17T06:08:33;99450.22;;;25.14;59.83
8320;BME280;4197;42.130;24.746;2023-08-17T06:11:01;99453.34;;;25.16;60.60
8320;BME280;4197;42.130;24.746;2023-08-17T06:13:30;99446.00;;;25.22;59.93
8320;BME280;4197;42.130;24.746;2023-08-17T06:16:01;99448.03;;;25.31;60.32
8320;BME280;4197;42.130;24.746;2023-08-17T06:18:30;99444.50;;;25.30;60.54
8320;BME280;4197;42.130;24.746;2023-08-17T06:20:58;99453.00;;;25.36;59.93
8320;BME280;4197;42.130;24.746;2023-08-17T06:23:28;99456.25;;;25.44;59.64
8320;BME280;4197;42.130;24.746;2023-08-17T06:25:56;99450.78;;;25.53;59.62
8320;BME280;4197;42.130;24.746;2023-08-17T06:28:26;99448.09;;;25.49;59.77
8320;BME280;4197;42.130;24.746;2023-08-17T06:30:55;99442.25;;;25.47;59.25
8320;BME280;4197;42.130;24.746;2023-08-17T06:33:25;99456.03;;;25.60;59.06
8320;BME280;4197;42.130;24.746;2023-08-17T06:35:53;99443.56;;;25.65;58.86
8320;BME280;4197;42.130;24.746;2023-08-17T06:38:22;99452.66;;;25.65;58.76
8320;BME280;4197;42.130;24.746;2023-08-17T06:40:51;99441.91;;;25.76;58.12
8320;BME280;4197;42.130;24.746;2023-08-17T06:43:20;99437.63;;;25.85;58.32
8320;BME280;4197;42.130;24.746;2023-08-17T06:45:49;99445.81;;;25.88;58.12
8320;BME280;4197;42.130;24.746;2023-08-17T06:48:18;99440.75;;;25.96;57.90
8320;BME280;4197;42.130;24.746;2023-08-17T06:50:48;99446.03;;;26.03;58.10
8320;BME280;4197;42.130;24.746;2023-08-17T06:53:16;99446.78;;;26.13;57.44
8320;BME280;4197;42.130;24.746;2023-08-17T06:55:45;99446.34;;;26.14;57.20
8320;BME280;4197;42.130;24.746;2023-08-17T06:58:16;99444.19;;;26.09;57.54
8320;BME280;4197;42.130;24.746;2023-08-17T07:00:47;99444.19;;;26.09;57.44
8320;BME280;4197;42.130;24.746;2023-08-17T07:03:16;99436.47;;;26.22;56.07
8320;BME280;4197;42.130;24.746;2023-08-17T07:05:45;99442.53;;;26.39;55.07
8320;BME280;4197;42.130;24.746;2023-08-17T07:08:14;99436.34;;;26.44;54.61
8320;BME280;4197;42.130;24.746;2023-08-17T07:10:43;99435.00;;;26.58;52.97
8320;BME280;4197;42.130;24.746;2023-08-17T07:13:12;99440.38;;;26.62;53.59
8320;BME280;4197;42.130;24.746;2023-08-17T07:15:40;99440.38;;;26.62;53.15
8320;BME280;4197;42.130;24.746;2023-08-17T07:18:09;99433.44;;;26.76;53.40
8320;BME280;4197;42.130;24.746;2023-08-17T07:20:37;99439.75;;;26.85;52.73
8320;BME280;4197;42.130;24.746;2023-08-17T07:23:05;99445.41;;;27.09;51.83
8320;BME280;4197;42.130;24.746;2023-08-17T07:25:35;99436.44;;;27.14;51.73
8320;BME280;4197;42.130;24.746;2023-08-17T07:28:04;99437.84;;;27.28;52.05
8320;BME280;4197;42.130;24.746;2023-08-17T07:30:33;99435.63;;;27.32;51.14
8320;BME280;4197;42.130;24.746;2023-08-17T07:33:01;99443.50;;;27.43;49.99
8320;BME280;4197;42.130;24.746;2023-08-17T07:35:30;99440.88;;;27.40;50.70
8320;BME280;4197;42.130;24.746;2023-08-17T07:37:59;99441.47;;;27.53;50.38
8320;BME280;4197;42.130;24.746;2023-08-17T07:40:37;99448.00;;;27.74;49.39
8320;BME280;4197;42.130;24.746;2023-08-17T07:43:06;99439.53;;;27.68;49.98
8320;BME280;4197;42.130;24.746;2023-08-17T07:45:37;99448.13;;;27.89;48.38
8320;BME280;4197;42.130;24.746;2023-08-17T07:48:05;99445.94;;;27.93;47.92
8320;BME280;4197;42.130;24.746;2023-08-17T07:50:34;99451.88;;;28.10;47.52
8320;BME280;4197;42.130;24.746;2023-08-17T07:53:03;99433.19;;;28.01;47.41
8320;BME280;4197;42.130;24.746;2023-08-17T07:55:31;99440.78;;;28.00;46.10
8320;BME280;4197;42.130;24.746;2023-08-17T07:58:06;99433.25;;;28.16;46.20
8320;BME280;4197;42.130;24.746;2023-08-17T08:00:34;99442.81;;;28.24;45.46
8320;BME280;4197;42.130;24.746;2023-08-17T08:03:05;99433.75;;;28.29;45.68
8320;BME280;4197;42.130;24.746;2023-08-17T08:05:34;99436.00;;;28.40;45.67
8320;BME280;4197;42.130;24.746;2023-08-17T08:08:03;99430.41;;;28.49;45.78
8320;BME280;4197;42.130;24.746;2023-08-17T08:10:32;99430.72;;;28.66;45.47
8320;BME280;4197;42.130;24.746;2023-08-17T08:13:00;99432.84;;;28.71;45.80
8320;BME280;4197;42.130;24.746;2023-08-17T08:15:31;99428.63;;;28.76;46.14
8320;BME280;4197;42.130;24.746;2023-08-17T08:17:59;99422.66;;;28.98;45.13
8320;BME280;4197;42.130;24.746;2023-08-17T08:20:28;99434.03;;;29.09;43.90
8320;BME280;4197;42.130;24.746;2023-08-17T08:22:57;99431.66;;;29.17;42.72
8320;BME280;4197;42.130;24.746;2023-08-17T08:25:25;99431.94;;;29.19;41.31
8320;BME280;4197;42.130;24.746;2023-08-17T08:27:53;99426.97;;;28.99;42.10
8320;BME280;4197;42.130;24.746;2023-08-17T08:30:21;99428.25;;;28.98;42.76
8320;BME280;4197;42.130;24.746;2023-08-17T08:32:51;99426.81;;;29.17;42.94
8320;BME280;4197;42.130;24.746;2023-08-17T08:35:19;99420.53;;;29.52;42.34
8320;BME280;4197;42.130;24.746;2023-08-17T08:37:49;99422.75;;;29.48;42.97
8320;BME280;4197;42.130;24.746;2023-08-17T08:40:17;99421.09;;;29.56;42.88
8320;BME280;4197;42.130;24.746;2023-08-17T08:42:46;99415.09;;;29.78;42.22
8320;BME280;4197;42.130;24.746;2023-08-17T08:45:15;99417.56;;;29.91;42.05
8320;BME280;4197;42.130;24.746;2023-08-17T08:47:44;99415.97;;;30.05;42.30
8320;BME280;4197;42.130;24.746;2023-08-17T08:50:17;99405.25;;;30.23;41.43
8320;BME280;4197;42.130;24.746;2023-08-17T08:52:53;99399.38;;;30.42;40.95
8320;BME280;4197;42.130;24.746;2023-08-17T08:55:24;99401.94;;;30.45;41.14
8320;BME280;4197;42.130;24.746;2023-08-17T08:57:55;99405.09;;;30.53;40.52
8320;BME280;4197;42.130;24.746;2023-08-17T09:00:25;99389.88;;;30.54;40.23
8320;BME280;4197;42.130;24.746;2023-08-17T09:02:53;99393.47;;;30.60;39.85
8320;BME280;4197;42.130;24.746;2023-08-17T09:05:23;99395.75;;;30.36;40.94
8320;BME280;4197;42.130;24.746;2023-08-17T09:07:53;99388.81;;;30.52;39.78
8320;BME280;4197;42.130;24.746;2023-08-17T09:10:22;99380.91;;;30.50;39.87
8320;BME280;4197;42.130;24.746;2023-08-17T09:12:51;99377.28;;;30.44;39.93
8320;BME280;4197;42.130;24.746;2023-08-17T09:15:20;99386.06;;;30.57;39.98
8320;BME280;4197;42.130;24.746;2023-08-17T09:17:49;99378.38;;;30.52;39.67
8320;BME280;4197;42.130;24.746;2023-08-17T09:20:39;99381.47;;;30.34;39.58
8320;BME280;4197;42.130;24.746;2023-08-17T09:23:14;99382.25;;;30.34;39.88
8320;BME280;4197;42.130;24.746;2023-08-17T09:25:44;99374.66;;;30.61;38.89
8320;BME280;4197;42.130;24.746;2023-08-17T09:28:15;99381.81;;;30.67;39.42
8320;BME280;4197;42.130;24.746;2023-08-17T09:30:51;99376.78;;;30.72;38.67
8320;BME280;4197;42.130;24.746;2023-08-17T09:33:21;99381.41;;;30.75;38.54
8320;BME280;4197;42.130;24.746;2023-08-17T09:35:52;99383.53;;;30.59;39.50
8320;BME280;4197;42.130;24.746;2023-08-17T09:38:25;99381.16;;;30.78;39.18
8320;BME280;4197;42.130;24.746;2023-08-17T09:40:54;99383.44;;;30.74;38.96
8320;BME280;4197;42.130;24.746;2023-08-17T09:43:24;99377.91;;;30.80;39.26
8320;BME280;4197;42.130;24.746;2023-08-17T09:45:55;99373.31;;;31.08;38.77
8320;BME280;4197;42.130;24.746;2023-08-17T09:48:25;99365.53;;;31.24;38.92
8320;BME280;4197;42.130;24.746;2023-08-17T09:51:01;99367.66;;;31.34;38.18
8320;BME280;4197;42.130;24.746;2023-08-17T09:53:33;99369.50;;;31.11;38.01
8320;BME280;4197;42.130;24.746;2023-08-17T09:56:04;99356.69;;;30.99;37.84
8320;BME280;4197;42.130;24.746;2023-08-17T09:58:34;99354.44;;;31.03;38.25
8320;BME280;4197;42.130;24.746;2023-08-17T10:01:04;99358.94;;;31.27;38.03
8320;BME280;4197;42.130;24.746;2023-08-17T10:03:33;99352.19;;;31.45;38.88
8320;BME280;4197;42.130;24.746;2023-08-17T10:06:05;99342.25;;;31.38;36.81
8320;BME280;4197;42.130;24.746;2023-08-17T10:08:43;99342.75;;;31.42;37.41
8320;BME280;4197;42.130;24.746;2023-08-17T10:11:18;99345.59;;;31.48;37.49
8320;BME280;4197;42.130;24.746;2023-08-17T10:13:51;99344.72;;;31.73;37.67
8320;BME280;4197;42.130;24.746;2023-08-17T10:16:22;99351.16;;;31.85;37.43
8320;BME280;4197;42.130;24.746;2023-08-17T10:18:57;99340.50;;;32.00;36.14
8320;BME280;4197;42.130;24.746;2023-08-17T10:21:34;99336.78;;;32.32;36.18
8320;BME280;4197;42.130;24.746;2023-08-17T10:24:05;99332.97;;;32.40;36.14
8320;BME280;4197;42.130;24.746;2023-08-17T10:26:34;99330.22;;;32.52;35.53
8320;BME280;4197;42.130;24.746;2023-08-17T10:29:03;99336.09;;;32.54;33.79
8320;BME280;4197;42.130;24.746;2023-08-17T10:31:44;99323.84;;;32.51;33.28
8320;BME280;4197;42.130;24.746;2023-08-17T10:34:13;99328.63;;;32.39;33.49
8320;BME280;4197;42.130;24.746;2023-08-17T10:36:45;99321.50;;;32.38;34.42
8320;BME280;4197;42.130;24.746;2023-08-17T10:39:24;99324.03;;;32.36;34.53
8320;BME280;4197;42.130;24.746;2023-08-17T10:41:56;99316.88;;;32.24;34.87
8320;BME280;4197;42.130;24.746;2023-08-17T10:44:44;99319.75;;;32.47;33.59
8320;BME280;4197;42.130;24.746;2023-08-17T10:47:20;99304.91;;;32.40;33.81
8320;BME280;4197;42.130;24.746;2023-08-17T10:49:50;99314.91;;;32.64;33.72
8320;BME280;4197;42.130;24.746;2023-08-17T10:52:32;99311.34;;;32.52;33.21
8320;BME280;4197;42.130;24.746;2023-08-17T10:55:04;99303.81;;;32.04;34.50
8320;BME280;4197;42.130;24.746;2023-08-17T10:57:35;99313.06;;;32.27;34.61
8320;BME280;4197;42.130;24.746;2023-08-17T11:00:18;99301.63;;;32.48;34.26
8320;BME280;4197;42.130;24.746;2023-08-17T11:02:53;99315.66;;;32.70;33.71
8320;BME280;4197;42.130;24.746;2023-08-17T11:05:38;99296.81;;;32.82;32.29
8320;BME280;4197;42.130;24.746;2023-08-17T11:08:09;99298.84;;;32.81;32.86
8320;BME280;4197;42.130;24.746;2023-08-17T11:10:38;99293.72;;;32.74;33.01
8320;BME280;4197;42.130;24.746;2023-08-17T11:13:06;99295.78;;;32.62;33.22
8320;BME280;4197;42.130;24.746;2023-08-17T11:15:36;99289.13;;;32.71;33.43
8320;BME280;4197;42.130;24.746;2023-08-17T11:18:06;99290.44;;;32.81;33.19
8320;BME280;4197;42.130;24.746;2023-08-17T11:20:37;99280.22;;;33.01;33.02
8320;BME280;4197;42.130;24.746;2023-08-17T11:23:08;99276.59;;;33.17;32.70
8320;BME280;4197;42.130;24.746;2023-08-17T11:25:37;99269.13;;;33.37;32.83
8320;BME280;4197;42.130;24.746;2023-08-17T11:28:07;99267.28;;;33.50;32.33
8320;BME280;4197;42.130;24.746;2023-08-17T11:30:36;99273.16;;;33.58;32.18
8320;BME280;4197;42.130;24.746;2023-08-17T11:33:06;99274.97;;;33.56;31.22
8320;BME280;4197;42.130;24.746;2023-08-17T11:35:35;99266.81;;;33.46;30.56
8320;BME280;4197;42.130;24.746;2023-08-17T11:38:04;99266.53;;;33.50;30.45
8320;BME280;4197;42.130;24.746;2023-08-17T11:40:36;99264.06;;;33.24;31.52
8320;BME280;4197;42.130;24.746;2023-08-17T11:43:05;99264.31;;;33.31;31.69
8320;BME280;4197;42.130;24.746;2023-08-17T11:45:35;99265.75;;;33.49;31.89
8320;BME280;4197;42.130;24.746;2023-08-17T11:48:04;99252.41;;;33.67;31.43
8320;BME280;4197;42.130;24.746;2023-08-17T11:50:33;99243.34;;;33.91;31.04
8320;BME280;4197;42.130;24.746;2023-08-17T11:53:05;99252.81;;;33.93;30.37
8320;BME280;4197;42.130;24.746;2023-08-17T11:55:35;99244.06;;;33.97;30.63
8320;BME280;4197;42.130;24.746;2023-08-17T11:58:04;99245.09;;;34.05;30.32
8320;BME280;4197;42.130;24.746;2023-08-17T12:00:37;99233.28;;;34.12;29.68
8320;BME280;4197;42.130;24.746;2023-08-17T12:03:07;99229.41;;;34.15;29.32
8320;BME280;4197;42.130;24.746;2023-08-17T12:05:36;99228.66;;;34.15;29.50
8320;BME280;4197;42.130;24.746;2023-08-17T12:08:07;99228.44;;;34.07;28.25
8320;BME280;4197;42.130;24.746;2023-08-17T12:10:38;99226.59;;;34.15;28.63
8320;BME280;4197;42.130;24.746;2023-08-17T12:13:11;99218.72;;;34.08;28.31
8320;BME280;4197;42.130;24.746;2023-08-17T12:15:39;99208.22;;;34.09;28.59
8320;BME280;4197;42.130;24.746;2023-08-17T12:18:08;99203.50;;;34.23;27.70
8320;BME280;4197;42.130;24.746;2023-08-17T12:20:37;99204.09;;;34.15;28.34
8320;BME280;4197;42.130;24.746;2023-08-17T12:23:05;99187.53;;;34.06;27.62
8320;BME280;4197;42.130;24.746;2023-08-17T12:25:33;99200.22;;;34.18;28.01
8320;BME280;4197;42.130;24.746;2023-08-17T12:28:04;99197.13;;;34.22;26.85
8320;BME280;4197;42.130;24.746;2023-08-17T12:30:33;99191.94;;;34.32;26.90
8320;BME280;4197;42.130;24.746;2023-08-17T12:33:03;99190.63;;;34.33;26.85
8320;BME280;4197;42.130;24.746;2023-08-17T12:35:32;99185.81;;;34.28;27.07
8320;BME280;4197;42.130;24.746;2023-08-17T12:38:01;99179.63;;;34.35;26.64
8320;BME280;4197;42.130;24.746;2023-08-17T12:40:29;99180.25;;;34.22;26.62
8320;BME280;4197;42.130;24.746;2023-08-17T12:42:58;99180.88;;;34.09;26.65
8320;BME280;4197;42.130;24.746;2023-08-17T12:45:28;99181.34;;;34.13;27.07
8320;BME280;4197;42.130;24.746;2023-08-17T12:47:59;99178.19;;;34.23;26.83
8320;BME280;4197;42.130;24.746;2023-08-17T12:50:27;99182.19;;;34.33;27.07
8320;BME280;4197;42.130;24.746;2023-08-17T12:52:56;99182.69;;;34.37;26.70
8320;BME280;4197;42.130;24.746;2023-08-17T12:55:24;99186.41;;;34.20;26.38
8320;BME280;4197;42.130;24.746;2023-08-17T12:57:53;99184.19;;;34.08;26.28
8320;BME280;4197;42.130;24.746;2023-08-17T13:00:29;99180.53;;;34.18;27.08
8320;BME280;4197;42.130;24.746;2023-08-17T13:02:58;99173.19;;;34.40;26.79
8320;BME280;4197;42.130;24.746;2023-08-17T13:05:27;99176.72;;;34.46;26.00
8320;BME280;4197;42.130;24.746;2023-08-17T13:07:55;99180.19;;;34.28;25.90
8320;BME280;4197;42.130;24.746;2023-08-17T13:10:24;99172.94;;;34.38;26.46
8320;BME280;4197;42.130;24.746;2023-08-17T13:12:52;99163.34;;;34.52;26.55
8320;BME280;4197;42.130;24.746;2023-08-17T13:15:23;99164.34;;;34.55;26.49
8320;BME280;4197;42.130;24.746;2023-08-17T13:17:53;99174.00;;;34.35;26.67
8320;BME280;4197;42.130;24.746;2023-08-17T13:20:21;99173.75;;;34.33;27.47
8320;BME280;4197;42.130;24.746;2023-08-17T13:22:49;99170.75;;;34.25;27.69
8320;BME280;4197;42.130;24.746;2023-08-17T13:25:18;99170.31;;;34.46;27.89